createdAt,value
2022-09-09T00:01:13.677Z,101907.38
2022-09-09T00:04:38.649Z,101909.97
2022-09-09T00:08:05.675Z,101911.72
2022-09-09T00:11:35.217Z,101920.34
2022-09-09T00:15:03.199Z,101905.66
2022-09-09T00:18:33.595Z,101915.16
2022-09-09T00:22:06.427Z,101913.41
2022-09-09T00:25:35.689Z,101908.22
2022-09-09T00:29:04.431Z,101911.69
2022-09-09T00:32:32.412Z,101913.41
2022-09-09T00:36:00.485Z,101911.69
2022-09-09T00:39:30.725Z,101909.09
2022-09-09T00:43:07.911Z,101900.47
2022-09-09T00:47:03.127Z,101899.59
2022-09-09T00:50:38.373Z,101906.53
2022-09-09T00:54:15.358Z,101896.16
2022-09-09T00:57:39.245Z,101905.66
2022-09-09T01:01:09.508Z,101903.06
2022-09-09T01:04:38.695Z,101915.13
2022-09-09T01:08:05.222Z,101909.09
2022-09-09T01:11:36.583Z,101906.50
2022-09-09T01:15:07.224Z,101897.88
2022-09-09T01:18:35.841Z,101908.22
2022-09-09T01:22:07.171Z,101906.50
2022-09-09T01:25:34.701Z,101902.19
2022-09-09T01:28:58.825Z,101889.19
2022-09-09T01:32:45.700Z,101900.44
2022-09-09T01:36:15.255Z,101901.28
2022-09-09T01:39:40.574Z,101900.44
2022-09-09T01:43:04.349Z,101902.16
2022-09-09T01:46:29.843Z,101894.38
2022-09-09T01:49:52.705Z,101906.47
2022-09-09T01:53:18.252Z,101902.13
2022-09-09T01:56:50.119Z,101898.69
2022-09-09T02:00:15.487Z,101897.81
2022-09-09T02:03:40.033Z,101896.94
2022-09-09T02:07:03.815Z,101897.78
2022-09-09T02:10:34.741Z,101892.59
2022-09-09T02:14:03.663Z,101897.75
2022-09-09T02:17:31.223Z,101897.78
2022-09-09T02:20:56.541Z,101885.72
2022-09-09T02:24:19.913Z,101896.06
2022-09-09T02:27:44.715Z,101899.50
2022-09-09T02:31:09.487Z,101887.44
2022-09-09T02:34:35.549Z,101883.97
2022-09-09T02:38:05.715Z,101895.16
2022-09-09T02:41:34.269Z,101891.72
2022-09-09T02:44:57.470Z,101895.16
2022-09-09T02:48:29.347Z,101890.84
2022-09-09T02:52:01.719Z,101878.72
2022-09-09T02:55:34.059Z,101888.22
2022-09-09T02:58:56.929Z,101891.66
2022-09-09T03:02:20.231Z,101870.94
2022-09-09T03:05:44.189Z,101890.81
2022-09-09T03:09:07.137Z,101894.28
2022-09-09T03:12:34.915Z,101888.22
2022-09-09T03:15:57.865Z,101882.19
2022-09-09T03:19:21.137Z,101892.53
2022-09-09T03:22:45.324Z,101888.22
2022-09-09T03:26:08.727Z,101886.50
2022-09-09T03:29:32.880Z,101892.53
2022-09-09T03:32:56.732Z,101895.94
2022-09-09T03:36:20.337Z,101893.38
2022-09-09T03:39:42.774Z,101893.38
2022-09-09T03:43:05.437Z,101895.09
2022-09-09T03:46:29.930Z,101894.25
2022-09-09T03:49:52.375Z,101901.97
2022-09-09T03:53:15.132Z,101895.09
2022-09-09T03:56:38.736Z,101901.97
2022-09-09T04:00:02.689Z,101899.41
2022-09-09T04:03:28.655Z,101896.84
2022-09-09T04:06:52.404Z,101896.84
2022-09-09T04:10:15.488Z,101904.59
2022-09-09T04:13:39.140Z,101904.63
2022-09-09T04:17:02.105Z,101904.66
2022-09-09T04:20:26.591Z,101908.09
2022-09-09T04:23:49.743Z,101911.56
2022-09-09T04:27:13.740Z,101912.44
2022-09-09T04:30:37.321Z,101911.59
2022-09-09T04:34:03.868Z,101904.69
2022-09-09T04:37:27.944Z,101906.44
2022-09-09T04:40:56.126Z,101903.91
2022-09-09T04:44:18.881Z,101913.41
2022-09-09T04:47:42.157Z,101900.47
2022-09-09T04:51:07.369Z,101903.94
2022-09-09T04:54:31.863Z,101904.78
2022-09-09T04:57:55.232Z,101909.06
2022-09-09T05:01:20.222Z,101901.25
2022-09-09T05:04:42.891Z,101903.78
2022-09-09T05:08:06.163Z,101903.75
2022-09-09T05:11:32.602Z,101904.53
2022-09-09T05:14:55.461Z,101893.25
2022-09-09T05:18:18.113Z,101906.97
2022-09-09T05:21:41.171Z,101907.72
2022-09-09T05:25:04.243Z,101909.34
2022-09-09T05:28:29.314Z,101910.03
2022-09-09T05:31:55.239Z,101905.56
2022-09-09T05:35:20.492Z,101913.19
2022-09-09T05:38:43.959Z,101908.75
2022-09-09T05:42:09.686Z,101913.75
2022-09-09T05:45:34.387Z,101910.97
2022-09-09T05:48:57.447Z,101917.66
2022-09-09T05:52:20.610Z,101923.47
2022-09-09T05:55:43.568Z,101918.97
2022-09-09T05:59:07.559Z,101913.53
2022-09-09T06:02:31.737Z,101912.50
2022-09-09T06:06:01.462Z,101912.22
2022-09-09T06:09:24.528Z,101917.94
2022-09-09T06:12:47.379Z,101914.22
2022-09-09T06:16:12.989Z,101922.47
2022-09-09T06:19:37.773Z,101921.31
2022-09-09T06:23:01.694Z,101922.00
2022-09-09T06:26:26.775Z,101921.66
2022-09-09T06:29:49.969Z,101927.34
2022-09-09T06:33:12.930Z,101926.88
2022-09-09T06:36:38.648Z,101917.78
2022-09-09T06:40:01.250Z,101918.16
2022-09-09T06:43:24.469Z,101926.31
2022-09-09T06:46:48.624Z,101920.47
2022-09-09T06:50:12.745Z,101909.53
2022-09-09T06:53:42.918Z,101919.69
2022-09-09T06:57:33.726Z,101922.03
2022-09-09T07:00:51.602Z,101918.09
2022-09-09T07:04:15.200Z,101914.09
2022-09-09T07:07:38.799Z,101919.72
2022-09-09T07:11:12.101Z,101923.75
2022-09-09T07:14:35.652Z,101924.16
2022-09-09T07:17:58.201Z,101923.06
2022-09-09T07:21:22.621Z,101933.19
2022-09-09T07:24:46.691Z,101933.88
2022-09-09T07:28:10.566Z,101935.31
2022-09-09T07:31:35.623Z,101938.31
2022-09-09T07:34:59.454Z,101937.84
2022-09-09T07:38:23.744Z,101940.03
2022-09-09T07:41:49.577Z,101927.63
2022-09-09T07:45:13.965Z,101929.00
2022-09-09T07:48:37.339Z,101931.94
2022-09-09T07:52:00.253Z,101932.38
2022-09-09T07:55:23.657Z,101926.97
2022-09-09T07:58:48.972Z,101929.59
2022-09-09T08:02:13.269Z,101927.00
2022-09-09T08:05:36.134Z,101928.81
2022-09-09T08:08:58.983Z,101935.59
2022-09-09T08:12:21.746Z,101929.19
2022-09-09T08:15:44.837Z,101927.88
2022-09-09T08:19:10.212Z,101934.25
2022-09-09T08:22:32.972Z,101925.03
2022-09-09T08:25:55.623Z,101930.09
2022-09-09T08:29:21.756Z,101930.00
2022-09-09T08:32:46.023Z,101930.56
2022-09-09T08:36:14.652Z,101930.16
2022-09-09T08:39:37.866Z,101924.78
2022-09-09T08:43:04.456Z,101931.66
2022-09-09T08:46:32.037Z,101931.38
2022-09-09T08:50:09.326Z,101926.59
2022-09-09T08:53:41.096Z,101928.31
2022-09-09T09:00:50.771Z,101920.41
2022-09-09T09:04:35.367Z,101927.19
2022-09-09T09:08:07.822Z,101922.88
2022-09-09T09:11:38.964Z,101919.91
2022-09-09T09:15:02.962Z,101923.22
2022-09-09T09:18:26.011Z,101924.63
2022-09-09T09:21:54.606Z,101920.00
2022-09-09T09:25:20.822Z,101920.81
2022-09-09T09:28:45.339Z,101925.56
2022-09-09T09:32:11.004Z,101914.75
2022-09-09T09:35:38.590Z,101916.25
2022-09-09T09:42:56.291Z,101903.31
2022-09-09T09:46:29.252Z,101901.25
2022-09-09T09:49:57.976Z,101898.50
2022-09-09T09:53:26.567Z,101899.38
2022-09-09T09:56:50.552Z,101886.25
2022-09-09T10:00:18.926Z,101879.00
2022-09-09T10:03:55.017Z,101884.34
2022-09-09T10:07:22.786Z,101877.25
2022-09-09T10:11:15.665Z,101879.56
2022-09-09T10:14:45.265Z,101874.16
2022-09-09T10:18:26.042Z,101877.13
2022-09-09T10:22:15.215Z,101875.72
2022-09-09T10:25:52.813Z,101860.28
2022-09-09T10:29:40.284Z,101865.03
2022-09-09T10:33:13.055Z,101866.97
2022-09-09T10:36:37.848Z,101867.16
2022-09-09T10:40:15.066Z,101860.13
2022-09-09T10:43:58.532Z,101870.53
2022-09-09T10:47:43.454Z,101869.75
2022-09-09T10:51:22.845Z,101868.94
2022-09-09T10:54:58.865Z,101868.66
2022-09-09T10:58:28.170Z,101859.63
2022-09-09T11:01:55.550Z,101860.16
2022-09-09T11:05:21.973Z,101865.16
2022-09-09T11:08:45.849Z,101864.16
2022-09-09T11:12:11.998Z,101864.31
2022-09-09T11:15:44.429Z,101859.31
2022-09-09T11:19:17.570Z,101861.44
2022-09-09T11:22:46.697Z,101857.16
2022-09-09T11:26:14.973Z,101863.91
2022-09-09T11:30:32.058Z,101851.47
2022-09-09T11:34:19.857Z,101856.59
2022-09-09T11:38:06.551Z,101847.78
2022-09-09T11:41:38.006Z,101849.06
2022-09-09T11:45:12.647Z,101846.16
2022-09-09T11:48:39.820Z,101838.25
2022-09-09T11:52:15.683Z,101839.22
2022-09-09T11:55:39.441Z,101832.41
2022-09-09T11:59:08.133Z,101831.31
2022-09-09T12:02:33.181Z,101826.41
2022-09-09T12:05:58.150Z,101830.72
2022-09-09T12:09:28.077Z,101822.94
2022-09-09T12:12:51.340Z,101815.69
2022-09-09T12:16:34.621Z,101807.84
2022-09-09T12:20:15.684Z,101811.13
2022-09-09T12:23:46.409Z,101810.56
2022-09-09T12:27:18.787Z,101798.63
2022-09-09T12:30:52.946Z,101803.00
2022-09-09T12:34:20.999Z,101800.22
2022-09-09T12:37:49.073Z,101787.31
2022-09-09T12:41:22.992Z,101785.31
2022-09-09T12:44:55.889Z,101778.94
2022-09-09T12:48:22.390Z,101779.50
2022-09-09T12:51:50.170Z,101791.59
2022-09-09T12:55:26.778Z,101776.00
2022-09-09T12:58:52.715Z,101777.72
2022-09-09T13:02:29.537Z,101778.47
2022-09-09T13:05:55.169Z,101766.09
2022-09-09T13:09:18.184Z,101761.19
2022-09-09T13:12:43.281Z,101759.09
2022-09-09T13:16:09.853Z,101763.47
2022-09-09T13:19:38.313Z,101758.41
2022-09-09T13:23:01.583Z,101751.94
2022-09-09T13:26:27.726Z,101746.81
2022-09-09T13:29:57.339Z,101743.38
2022-09-09T13:33:26.191Z,101745.22
2022-09-09T13:36:52.057Z,101745.22
2022-09-09T13:40:21.368Z,101738.16
2022-09-09T13:43:48.733Z,101731.50
2022-09-09T13:47:22.236Z,101744.81
2022-09-09T13:50:45.198Z,101718.69
2022-09-09T13:54:12.052Z,101715.13
2022-09-09T13:57:35.522Z,101730.69
2022-09-09T14:01:02.014Z,101725.28
2022-09-09T14:04:25.029Z,101722.59
2022-09-09T14:07:52.506Z,101714.88
2022-09-09T14:11:18.014Z,101715.81
2022-09-09T14:14:41.275Z,101715.97
2022-09-09T14:18:04.240Z,101715.41
2022-09-09T14:21:27.740Z,101719.97
2022-09-09T14:24:50.540Z,101722.47
2022-09-09T14:28:16.727Z,101713.91
2022-09-09T14:31:39.869Z,101712.50
2022-09-09T14:35:03.131Z,101710.50
2022-09-09T14:38:26.300Z,101709.50
2022-09-09T14:41:49.255Z,101702.44
2022-09-09T14:45:14.785Z,101710.63
2022-09-09T14:48:38.039Z,101697.69
2022-09-09T14:52:02.750Z,101690.72
2022-09-09T14:55:25.710Z,101688.16
2022-09-09T14:58:48.979Z,101686.47
2022-09-09T15:02:15.600Z,101688.31
2022-09-09T15:05:40.114Z,101683.38
2022-09-09T15:09:03.281Z,101677.50
2022-09-09T15:12:26.756Z,101669.09
2022-09-09T15:15:52.142Z,101675.06
2022-09-09T15:19:16.257Z,101677.84
2022-09-09T15:22:39.521Z,101683.97
2022-09-09T15:26:02.794Z,101685.75
2022-09-09T15:29:25.756Z,101677.34
2022-09-09T15:32:48.706Z,101685.22
2022-09-09T15:36:24.371Z,101677.47
2022-09-09T15:39:47.503Z,101676.72
2022-09-09T15:43:12.341Z,101680.47
2022-09-09T15:46:38.781Z,101673.50
2022-09-09T15:50:02.356Z,101676.28
2022-09-09T15:53:27.877Z,101666.88
2022-09-09T15:56:54.315Z,101662.78
2022-09-09T16:00:18.096Z,101668.16
2022-09-09T16:03:45.557Z,101660.66
2022-09-09T16:07:09.135Z,101662.59
2022-09-09T16:10:33.736Z,101669.69
2022-09-09T16:13:58.332Z,101656.09
2022-09-09T16:17:21.902Z,101666.00
2022-09-09T16:20:45.173Z,101661.84
2022-09-09T16:24:12.125Z,101656.09
2022-09-09T16:27:36.312Z,101655.38
2022-09-09T16:31:00.814Z,101660.06
2022-09-09T16:34:24.695Z,101672.66
2022-09-09T16:37:47.660Z,101659.25
2022-09-09T16:41:11.940Z,101668.97
2022-09-09T16:44:37.274Z,101673.81
2022-09-09T16:48:00.425Z,101678.78
2022-09-09T16:51:25.526Z,101688.00
2022-09-09T16:54:49.920Z,101686.75
2022-09-09T16:58:14.423Z,101679.44
2022-09-09T17:01:42.251Z,101686.97
2022-09-09T17:05:06.075Z,101685.81
2022-09-09T17:08:29.750Z,101679.28
2022-09-09T17:11:53.645Z,101688.63
2022-09-09T17:15:19.254Z,101692.69
2022-09-09T17:18:43.951Z,101687.09
2022-09-09T17:22:16.845Z,101684.00
2022-09-09T17:25:52.609Z,101683.66
2022-09-09T17:29:16.390Z,101686.66
2022-09-09T17:32:39.812Z,101686.09
2022-09-09T17:36:09.509Z,101688.22
2022-09-09T17:39:33.731Z,101691.88
2022-09-09T17:42:56.757Z,101690.41
2022-09-09T17:46:23.100Z,101680.28
2022-09-09T17:49:46.742Z,101691.59
2022-09-09T17:53:10.930Z,101689.25
2022-09-09T17:56:35.524Z,101680.69
2022-09-09T17:59:59.406Z,101694.69
2022-09-09T18:03:22.572Z,101680.09
2022-09-09T18:06:47.689Z,101694.16
2022-09-09T18:10:13.018Z,101695.28
2022-09-09T18:13:37.309Z,101689.44
2022-09-09T18:17:02.217Z,101689.53
2022-09-09T18:20:25.365Z,101689.78
2022-09-09T18:23:53.135Z,101688.28
2022-09-09T18:27:18.141Z,101693.78
2022-09-09T18:30:42.532Z,101693.09
2022-09-09T18:34:07.971Z,101690.59
2022-09-09T18:37:34.529Z,101694.28
2022-09-09T18:40:57.153Z,101686.69
2022-09-09T18:44:25.436Z,101688.47
2022-09-09T18:47:50.131Z,101689.47
2022-09-09T18:51:13.607Z,101687.88
2022-09-09T18:54:36.670Z,101681.13
2022-09-09T18:57:59.835Z,101679.59
2022-09-09T19:01:24.480Z,101694.44
2022-09-09T19:04:47.393Z,101684.19
2022-09-09T19:08:10.144Z,101681.59
2022-09-09T19:11:33.410Z,101689.56
2022-09-09T19:14:57.496Z,101687.91
2022-09-09T19:18:22.299Z,101686.25
2022-09-09T19:21:45.863Z,101689.00
2022-09-09T19:25:09.762Z,101677.16
2022-09-09T19:28:32.722Z,101679.81
2022-09-09T19:35:42.910Z,101670.69
2022-09-09T19:39:07.099Z,101682.88
2022-09-09T19:42:31.985Z,101683.00
2022-09-09T19:46:02.980Z,101687.41
2022-09-09T19:49:26.002Z,101686.66
2022-09-09T19:52:50.304Z,101682.41
2022-09-09T19:56:16.336Z,101675.69
2022-09-09T19:59:39.804Z,101685.41
2022-09-09T20:03:18.809Z,101684.69
2022-09-09T20:06:45.991Z,101681.38
2022-09-09T20:10:10.699Z,101686.72
2022-09-09T20:13:35.297Z,101686.00
2022-09-09T20:16:58.154Z,101694.78
2022-09-09T20:20:21.422Z,101687.03
2022-09-09T20:23:44.381Z,101694.06
2022-09-09T20:27:09.879Z,101695.03
2022-09-09T20:30:38.601Z,101696.84
2022-09-09T20:34:04.001Z,101698.66
2022-09-09T20:37:26.774Z,101700.59
2022-09-09T20:40:49.427Z,101699.00
2022-09-09T20:44:16.277Z,101702.50
2022-09-09T20:47:39.885Z,101698.38
2022-09-09T20:51:07.424Z,101708.84
2022-09-09T20:54:32.006Z,101713.31
2022-09-09T20:57:54.675Z,101704.75
2022-09-09T21:01:21.266Z,101707.38
2022-09-09T21:04:46.005Z,101714.38
2022-09-09T21:08:09.796Z,101704.97
2022-09-09T21:11:32.963Z,101711.00
2022-09-09T21:14:55.923Z,101705.91
2022-09-09T21:18:23.489Z,101709.47
2022-09-09T21:21:48.390Z,101716.50
2022-09-09T21:25:11.681Z,101720.88
2022-09-09T21:28:35.027Z,101716.66
2022-09-09T21:32:00.649Z,101713.28
2022-09-09T21:35:25.170Z,101718.53
2022-09-09T21:38:48.214Z,101707.41
2022-09-09T21:42:10.859Z,101704.00
2022-09-09T21:45:36.181Z,101720.50
2022-09-09T21:49:00.265Z,101718.00
2022-09-09T21:52:24.863Z,101722.34
2022-09-09T21:55:51.211Z,101728.47
2022-09-09T21:59:14.062Z,101717.25
2022-09-09T22:02:37.601Z,101716.50
2022-09-09T22:06:00.392Z,101724.28
2022-09-09T22:09:27.133Z,101719.09
2022-09-09T22:12:49.794Z,101717.31
2022-09-09T22:16:14.734Z,101719.94
2022-09-09T22:19:37.657Z,101719.09
2022-09-09T22:23:00.512Z,101720.81
2022-09-09T22:26:26.244Z,101719.06
2022-09-09T22:29:55.132Z,101711.28
2022-09-09T22:33:18.194Z,101723.47
2022-09-09T22:36:40.858Z,101723.53
2022-09-09T22:40:04.121Z,101716.69
2022-09-09T22:43:28.508Z,101716.69
2022-09-09T22:46:51.680Z,101719.28
2022-09-09T22:50:14.944Z,101712.41
2022-09-09T22:53:38.207Z,101718.47
2022-09-09T22:57:01.382Z,101706.44
2022-09-09T23:00:26.998Z,101713.34
2022-09-09T23:03:51.058Z,101715.97
2022-09-09T23:07:15.678Z,101711.66
2022-09-09T23:10:42.236Z,101702.22
2022-09-09T23:14:07.043Z,101699.69
2022-09-09T23:17:32.545Z,101702.31
2022-09-09T23:21:00.939Z,101705.75
2022-09-09T23:24:24.040Z,101684.22
2022-09-09T23:27:46.852Z,101685.13
2022-09-09T23:31:11.402Z,101689.47
2022-09-09T23:34:36.394Z,101684.34
2022-09-09T23:38:00.658Z,101686.06
2022-09-09T23:41:25.248Z,101682.66
2022-09-09T23:44:49.234Z,101681.75
2022-09-09T23:48:12.194Z,101675.75
2022-09-09T23:51:38.530Z,101670.59
2022-09-09T23:55:01.185Z,101680.94
2022-09-09T23:58:25.886Z,101672.34
